Terminal Aerodrome Forecast
Issued by NWS

Home | Current Version | Previous Version | Text Only | Print | Product List | Glossary On
Versions: 1 2 3 4 5 6 7 8 9 10 11 12 13 14 15 16 17 18 19 20 21 22 23 24
000
FTUS41 KGYX 261731
TAFPSM
TAF
KPSM 261731Z 2618/2718 13008KT P6SM FEW130 BKN180 BKN250
     FM262200 08005KT P6SM BKN025 OVC050
     FM270400 05005KT 5SM -SN BKN015 OVC025
     FM270800 06004KT 2SM -FZRA BR BKN007 OVC015
     FM271200 08006KT 1 1/2SM -RA BR OVC007=

USA.gov is the U.S. government's official web portal to all federal, state and local government web resources and services.